Time;durP1;ratioP1;P1;durP2;ratioP2;P2;SDS_P1;SDS_P2;PMS_P1;PMS_P2;Temp;Humidity;BMP_temperature;BMP_pressure;BME280_temperature;BME280_humidity;BME280_pressure;Samples;Min_cycle;Max_cycle;Signal;HPM_P1;HPM_P2
2021/04/16 00:00:46;;;;;;;1.40;1.30;;;6.80;58.20;;;;;;4998336;28;20207;-85
2021/04/16 00:03:13;;;;;;;2.03;1.37;;;4.50;56.70;;;;;;4995353;28;20651;-86
2021/04/16 00:05:40;;;;;;;2.50;1.77;;;4.50;56.60;;;;;;5002639;28;20668;-85
2021/04/16 00:08:08;;;;;;;1.70;1.60;;;4.60;56.50;;;;;;4999818;28;20224;-86
2021/04/16 00:10:41;;;;;;;1.87;1.50;;;4.40;56.40;;;;;;5017865;28;20231;-86
2021/04/16 00:13:07;;;;;;;2.07;1.47;;;4.60;56.10;;;;;;4994224;28;20219;-85
2021/04/16 00:15:36;;;;;;;1.70;1.10;;;4.60;56.80;;;;;;5002460;28;20283;-86
2021/04/16 00:18:04;;;;;;;1.70;1.60;;;4.70;57.40;;;;;;5013154;28;20180;-86
2021/04/16 00:20:30;;;;;;;2.30;1.90;;;4.70;57.60;;;;;;4998632;28;20200;-86
2021/04/16 00:22:57;;;;;;;2.33;1.90;;;4.60;57.50;;;;;;5002996;28;20234;-86
2021/04/16 00:25:25;;;;;;;1.57;1.47;;;4.60;58.00;;;;;;5003585;28;20318;-86
2021/04/16 00:27:52;;;;;;;2.03;1.90;;;4.60;58.00;;;;;;5000412;28;20310;-87
2021/04/16 00:30:41;;;;;;;2.37;1.60;;;4.60;58.10;;;;;;5006944;28;20220;-87
2021/04/16 00:33:08;;;;;;;1.50;1.40;;;4.60;58.00;;;;;;5003488;28;20211;-86
2021/04/16 00:35:35;;;;;;;1.60;1.43;;;4.60;58.20;;;;;;4995841;28;20692;-86
2021/04/16 00:38:00;;;;;;;2.20;1.87;;;4.60;58.40;;;;;;5024728;28;20184;-86
2021/04/16 00:40:40;;;;;;;2.20;1.47;;;4.70;58.00;;;;;;5008464;28;20212;-86
2021/04/16 00:43:09;;;;;;;2.70;1.80;;;4.70;58.10;;;;;;4998414;28;20223;-86
2021/04/16 00:45:35;;;;;;;1.67;1.57;;;4.60;59.00;;;;;;4997878;28;20176;-86
2021/04/16 00:48:05;;;;;;;1.40;1.30;;;6.30;61.50;;;;;;5002134;28;20263;-86
2021/04/16 00:50:38;;;;;;;2.17;1.80;;;4.70;59.30;;;;;;5001549;28;20251;-86
2021/04/16 00:53:04;;;;;;;2.20;1.47;;;4.70;59.30;;;;;;5006228;28;20291;-85
2021/04/16 00:55:30;;;;;;;4.67;1.60;;;4.70;59.10;;;;;;5000468;28;20286;-86
2021/04/16 00:57:56;;;;;;;1.60;1.50;;;4.70;59.70;;;;;;5006501;28;20224;-85
2021/04/16 01:00:24;;;;;;;2.10;1.90;;;4.60;59.70;;;;;;5003726;28;20318;-87
2021/04/16 01:02:50;;;;;;;1.80;1.70;;;4.60;59.70;;;;;;4996990;28;20188;-85
2021/04/16 01:05:17;;;;;;;1.70;1.60;;;4.80;59.40;;;;;;5006763;28;20210;-86
2021/04/16 01:07:42;;;;;;;2.87;1.80;;;4.80;59.10;;;;;;5009156;28;20192;-86
2021/04/16 01:10:09;;;;;;;1.57;1.47;;;4.80;58.90;;;;;;5001552;28;20703;-86
2021/04/16 01:12:35;;;;;;;1.60;1.47;;;;;;;;;;5007017;28;20246;-85
2021/04/16 01:15:15;;;;;;;1.83;1.70;;;4.80;58.80;;;;;;5005411;28;20224;-86
2021/04/16 01:17:43;;;;;;;1.93;1.77;;;4.90;59.20;;;;;;5006328;28;20545;-85
2021/04/16 01:20:14;;;;;;;2.03;1.77;;;4.90;59.70;;;;;;5005031;28;20188;-86
2021/04/16 01:23:06;;;;;;;2.87;1.87;;;4.90;59.20;;;;;;5021612;28;20222;-86
2021/04/16 01:25:31;;;;;;;1.90;1.70;;;4.80;59.40;;;;;;5001636;28;20648;-86
2021/04/16 01:27:58;;;;;;;2.23;1.63;;;4.80;59.40;;;;;;5005181;28;20207;-85
2021/04/16 01:30:28;;;;;;;1.60;1.30;;;4.90;59.50;;;;;;5006688;28;20259;-86
2021/04/16 01:32:54;;;;;;;1.37;1.27;;;4.80;59.40;;;;;;5004207;28;20192;-86
2021/04/16 01:35:29;;;;;;;3.00;1.80;;;4.90;59.50;;;;;;5004180;28;20212;-86
2021/04/16 01:37:54;;;;;;;2.23;1.97;;;4.90;60.00;;;;;;5000782;28;20683;-87
2021/04/16 01:40:21;;;;;;;1.20;1.00;;;4.90;60.00;;;;;;5007925;28;20222;-85
2021/04/16 01:42:47;;;;;;;2.97;2.20;;;4.90;60.10;;;;;;5001245;28;20220;-85
2021/04/16 01:45:28;;;;;;;0.87;0.87;;;4.90;61.10;;;;;;5003650;28;20312;-86
2021/04/16 01:47:56;;;;;;;1.93;1.70;;;4.90;61.60;;;;;;5020649;28;20200;-86
2021/04/16 01:50:22;;;;;;;3.40;1.87;;;4.90;61.50;;;;;;5002430;28;20855;-85
2021/04/16 01:52:48;;;;;;;0.83;0.63;;;4.90;62.20;;;;;;5018791;28;20224;-85
2021/04/16 01:55:14;;;;;;;3.50;2.60;;;4.80;62.10;;;;;;5017074;28;20246;-85
2021/04/16 01:57:40;;;;;;;1.40;1.40;;;4.80;62.80;;;;;;5002495;28;20211;-86
2021/04/16 02:00:14;;;;;;;0.87;0.87;;;4.80;63.10;;;;;;5006771;28;20203;-85
2021/04/16 02:02:40;;;;;;;2.37;2.17;;;4.80;63.40;;;;;;5000182;28;21001;-85
2021/04/16 02:05:06;;;;;;;2.73;2.53;;;4.70;63.60;;;;;;5000436;28;20224;-86
2021/04/16 02:07:32;;;;;;;1.60;1.43;;;4.70;63.80;;;;;;5005465;28;20196;-86
2021/04/16 02:09:58;;;;;;;2.23;2.03;;;4.70;63.60;;;;;;5004240;28;20187;-87
2021/04/16 02:12:24;;;;;;;2.60;1.97;;;4.70;63.90;;;;;;5003777;28;20223;-87
2021/04/16 02:14:52;;;;;;;1.40;1.30;;;4.70;64.40;;;;;;5002362;28;20670;-85
2021/04/16 02:17:22;;;;;;;2.37;2.03;;;4.60;64.20;;;;;;5003381;28;20196;-87
2021/04/16 02:19:48;;;;;;;1.83;1.73;;;;;;;;;;4999437;28;20222;-85
2021/04/16 02:22:22;;;;;;;1.77;1.67;;;4.50;65.20;;;;;;5007214;28;20279;-87
2021/04/16 02:24:48;;;;;;;0.83;0.83;;;4.50;66.00;;;;;;5018347;28;20258;-87
2021/04/16 02:27:16;;;;;;;1.97;1.87;;;4.50;66.50;;;;;;5001259;28;20227;-86
2021/04/16 02:29:42;;;;;;;2.03;1.83;;;4.60;66.90;;;;;;5002706;28;20196;-86
2021/04/16 02:32:08;;;;;;;2.40;2.20;;;4.50;66.60;;;;;;5002817;28;20526;-87
2021/04/16 02:34:34;;;;;;;1.40;1.30;;;4.50;67.10;;;;;;4997108;28;20247;-86
2021/04/16 02:37:03;;;;;;;3.47;1.80;;;4.50;66.90;;;;;;4997576;28;20696;-87
2021/04/16 02:39:29;;;;;;;2.67;1.53;;;4.50;67.50;;;;;;4999384;28;20219;-88
2021/04/16 02:41:55;;;;;;;2.40;2.20;;;4.50;68.20;;;;;;5003584;28;20222;-86
2021/04/16 02:44:22;;;;;;;3.00;2.10;;;4.50;68.20;;;;;;5004965;28;20184;-87
2021/04/16 02:46:47;;;;;;;1.57;1.47;;;4.50;68.20;;;;;;5001887;28;20223;-86
2021/04/16 02:49:13;;;;;;;1.70;1.23;;;4.40;67.60;;;;;;5000348;28;20212;-87
2021/04/16 02:51:39;;;;;;;2.10;2.00;;;4.40;68.20;;;;;;5002486;28;20193;-86
2021/04/16 02:54:06;;;;;;;3.47;2.37;;;4.40;68.20;;;;;;5001685;28;20219;-86
2021/04/16 02:56:32;;;;;;;3.30;2.40;;;4.40;68.30;;;;;;5003895;28;20608;-87
2021/04/16 02:58:58;;;;;;;2.37;2.10;;;4.40;68.60;;;;;;5000710;28;20219;-86
2021/04/16 03:01:25;;;;;;;2.63;2.20;;;4.40;68.90;;;;;;4995349;28;20225;-87
2021/04/16 03:03:51;;;;;;;3.67;2.20;;;4.40;68.70;;;;;;4999575;28;20223;-86
2021/04/16 03:06:17;;;;;;;2.43;2.23;;;4.40;68.50;;;;;;5001244;28;20224;-87
2021/04/16 03:08:42;;;;;;;2.03;1.83;;;4.40;69.00;;;;;;5000788;28;20224;-86
2021/04/16 03:11:10;;;;;;;2.40;2.03;;;4.40;69.30;;;;;;4999236;28;20188;-87
2021/04/16 03:13:37;;;;;;;1.93;1.83;;;4.30;68.80;;;;;;5006180;28;20212;-87
2021/04/16 03:16:03;;;;;;;2.50;2.30;;;;;;;;;;5017483;28;20231;-87
2021/04/16 03:18:30;;;;;;;1.50;1.40;;;4.30;69.20;;;;;;5000139;28;20220;-86
2021/04/16 03:20:56;;;;;;;2.80;2.60;;;4.80;70.90;;;;;;5003287;28;20188;-86
2021/04/16 03:23:22;;;;;;;3.07;2.40;;;;;;;;;;5002434;28;20195;-86
2021/04/16 03:25:47;;;;;;;4.70;2.70;;;4.20;70.00;;;;;;5015596;28;20179;-86
2021/04/16 03:28:13;;;;;;;4.37;2.77;;;4.20;70.50;;;;;;5000599;28;20232;-86
2021/04/16 03:30:39;;;;;;;2.77;2.37;;;4.20;70.40;;;;;;5001556;28;20222;-87
2021/04/16 03:33:05;;;;;;;2.37;2.17;;;4.90;70.80;;;;;;4999233;28;20221;-87
2021/04/16 03:35:31;;;;;;;2.70;2.47;;;;;;;;;;5000020;28;20250;-87
2021/04/16 03:37:57;;;;;;;1.83;1.73;;;4.20;69.30;;;;;;4999499;28;20227;-87
2021/04/16 03:40:27;;;;;;;2.43;2.23;;;4.20;68.70;;;;;;4998543;28;20294;-85
2021/04/16 03:42:52;;;;;;;3.27;2.57;;;4.20;68.50;;;;;;5003110;28;20245;-87
2021/04/16 03:45:19;;;;;;;3.00;2.60;;;4.40;69.20;;;;;;5004177;28;20281;-85
2021/04/16 03:47:46;;;;;;;2.97;2.67;;;4.20;68.50;;;;;;5010126;28;20176;-87
2021/04/16 03:50:15;;;;;;;4.73;2.50;;;4.20;69.10;;;;;;5017018;28;20181;-87
2021/04/16 03:52:41;;;;;;;2.37;2.13;;;4.20;68.60;;;;;;5003748;28;20698;-87
2021/04/16 03:55:08;;;;;;;2.37;2.20;;;4.20;68.70;;;;;;4998358;28;20227;-86
2021/04/16 03:57:33;;;;;;;3.13;2.07;;;4.00;68.00;;;;;;5003501;28;20191;-86
2021/04/16 03:59:59;;;;;;;3.10;2.53;;;4.00;68.60;;;;;;5001332;28;20295;-86
2021/04/16 04:02:25;;;;;;;2.37;2.00;;;4.00;68.20;;;;;;5003436;28;20203;-87
2021/04/16 04:04:51;;;;;;;2.07;1.87;;;4.00;68.40;;;;;;5002202;28;20234;-86
2021/04/16 04:07:17;;;;;;;2.30;2.10;;;4.00;67.90;;;;;;5005626;28;20317;-87
2021/04/16 04:09:43;;;;;;;2.97;1.80;;;4.00;68.10;;;;;;5003863;28;20192;-86
2021/04/16 04:12:10;;;;;;;2.33;2.13;;;3.90;67.20;;;;;;5010180;28;20199;-87
2021/04/16 04:14:36;;;;;;;3.63;2.10;;;3.90;68.10;;;;;;5005105;28;20224;-86
2021/04/16 04:17:04;;;;;;;2.90;2.37;;;4.00;67.80;;;;;;4997785;28;20307;-87
2021/04/16 04:19:32;;;;;;;3.73;2.40;;;4.00;67.80;;;;;;5002171;28;20601;-87
2021/04/16 04:22:00;;;;;;;2.63;2.43;;;4.00;67.80;;;;;;5001391;28;20636;-86
2021/04/16 04:24:27;;;;;;;2.37;2.17;;;4.00;67.80;;;;;;5005066;28;20239;-88
2021/04/16 04:26:53;;;;;;;3.10;2.63;;;4.00;67.80;;;;;;5018068;28;20211;-87
2021/04/16 04:29:22;;;;;;;3.13;2.80;;;4.00;67.80;;;;;;5006089;28;20187;-87
2021/04/16 04:31:50;;;;;;;2.40;2.10;;;4.00;66.50;;;;;;5008396;28;20255;-87
2021/04/16 04:34:20;;;;;;;2.97;2.47;;;4.00;67.00;;;;;;5006757;28;20228;-87
2021/04/16 04:36:47;;;;;;;2.37;2.10;;;4.10;66.70;;;;;;5007986;28;20211;-86
2021/04/16 04:39:14;;;;;;;2.53;2.27;;;4.10;66.00;;;;;;5009529;28;20268;-88
2021/04/16 04:41:41;;;;;;;2.60;2.40;;;4.20;66.00;;;;;;5003315;28;20168;-88
2021/04/16 04:44:07;;;;;;;2.90;2.20;;;4.30;63.80;;;;;;5018501;28;20195;-86
2021/04/16 04:46:34;;;;;;;2.43;2.23;;;4.30;64.30;;;;;;5002841;28;20291;-87
2021/04/16 04:49:00;;;;;;;2.27;2.07;;;4.30;63.60;;;;;;5005177;28;20223;-87
2021/04/16 04:51:26;;;;;;;5.93;2.50;;;4.40;63.40;;;;;;5005478;28;20230;-86
2021/04/16 04:53:52;;;;;;;2.27;1.90;;;4.40;63.80;;;;;;5010156;28;20192;-85
2021/04/16 04:56:17;;;;;;;1.90;1.80;;;4.40;63.60;;;;;;5005727;28;20184;-89
2021/04/16 04:58:43;;;;;;;3.60;2.00;;;4.40;62.50;;;;;;5005240;28;20219;-90
2021/04/16 05:01:09;;;;;;;2.83;1.80;;;4.40;63.00;;;;;;5002464;28;20230;-89
2021/04/16 05:03:35;;;;;;;2.60;2.03;;;4.40;62.30;;;;;;5000590;28;20239;-89
2021/04/16 05:06:01;;;;;;;1.30;1.07;;;4.50;59.60;;;;;;4983683;28;20209;-88
2021/04/16 05:08:27;;;;;;;1.90;1.67;;;4.50;59.20;;;;;;4982225;28;20220;-87
2021/04/16 05:10:52;;;;;;;1.70;1.60;;;4.50;59.20;;;;;;4986271;28;20239;-88
2021/04/16 05:13:18;;;;;;;1.93;1.67;;;4.60;59.30;;;;;;5002728;28;20235;-87
2021/04/16 05:15:44;;;;;;;3.67;2.20;;;4.60;59.80;;;;;;5000867;28;20280;-88
2021/04/16 05:18:10;;;;;;;3.13;1.43;;;4.60;58.50;;;;;;4995817;28;20224;-89
2021/04/16 05:20:36;;;;;;;2.40;1.50;;;4.70;57.80;;;;;;4983214;28;20714;-89
2021/04/16 05:23:02;;;;;;;3.47;1.73;;;4.80;56.00;;;;;;4988440;28;20244;-88
2021/04/16 05:25:28;;;;;;;2.20;2.00;;;4.70;55.80;;;;;;4968337;28;20200;-89
2021/04/16 05:27:54;;;;;;;0.50;0.50;;;4.80;56.00;;;;;;4991647;28;20224;-89
2021/04/16 05:30:21;;;;;;;1.50;1.40;;;4.80;55.30;;;;;;4998218;28;20200;-89
2021/04/16 05:32:47;;;;;;;1.90;1.70;;;;;;;;;;5002085;28;20207;-88
2021/04/16 05:35:15;;;;;;;1.67;1.17;;;4.80;54.40;;;;;;4996712;28;20672;-89
2021/04/16 05:37:41;;;;;;;1.13;1.10;;;;;;;;;;5011883;28;20235;-88
2021/04/16 05:40:08;;;;;;;4.40;1.73;;;4.90;54.50;;;;;;4985789;28;20298;-89
2021/04/16 05:42:34;;;;;;;1.53;1.43;;;4.90;54.10;;;;;;5001150;28;20288;-88
2021/04/16 05:45:01;;;;;;;1.30;1.07;;;4.90;55.80;;;;;;5018930;28;20180;-88
2021/04/16 05:47:30;;;;;;;0.63;0.63;;;5.00;53.50;;;;;;5000223;28;20207;-88
2021/04/16 05:49:57;;;;;;;0.73;0.73;;;5.00;54.20;;;;;;5014042;28;20220;-88
2021/04/16 05:52:22;;;;;;;1.37;1.27;;;5.00;53.90;;;;;;5000479;28;20294;-88
2021/04/16 05:54:48;;;;;;;1.40;1.30;;;;;;;;;;4996374;28;20443;-88
2021/04/16 05:57:14;;;;;;;1.17;0.93;;;5.10;53.70;;;;;;5002403;28;20212;-87
2021/04/16 05:59:40;;;;;;;1.30;1.20;;;5.00;54.40;;;;;;4991945;28;20198;-87
2021/04/16 06:02:32;;;;;;;1.33;1.23;;;5.00;53.80;;;;;;4996702;28;20196;-86
2021/04/16 06:04:59;;;;;;;1.20;1.03;;;5.10;54.00;;;;;;5002783;28;20226;-86
2021/04/16 06:07:25;;;;;;;0.90;0.90;;;;;;;;;;5003712;28;20224;-87
2021/04/16 06:09:52;;;;;;;1.27;1.17;;;5.20;54.50;;;;;;5001726;28;20202;-86
2021/04/16 06:12:21;;;;;;;0.80;0.80;;;5.10;54.00;;;;;;4999041;28;20271;-87
2021/04/16 06:14:48;;;;;;;1.90;1.00;;;5.10;54.10;;;;;;5017244;28;20246;-87
2021/04/16 06:17:14;;;;;;;0.97;0.93;;;5.10;53.80;;;;;;5001103;28;20186;-87
2021/04/16 06:20:05;;;;;;;0.73;0.70;;;5.10;54.40;;;;;;5002392;28;20219;-87
2021/04/16 06:22:53;;;;;;;0.50;0.50;;;5.10;54.00;;;;;;4996366;28;20211;-87
2021/04/16 06:25:22;;;;;;;0.63;0.63;;;5.10;54.30;;;;;;5001658;28;20204;-87
2021/04/16 06:27:47;;;;;;;1.10;1.00;;;5.30;54.60;;;;;;5015770;28;20211;-87
2021/04/16 06:30:15;;;;;;;5.73;1.07;;;5.30;54.40;;;;;;5004392;28;20239;-87
2021/04/16 06:32:40;;;;;;;1.07;0.90;;;5.40;53.70;;;;;;5000570;28;20191;-81
2021/04/16 06:35:08;;;;;;;0.60;0.60;;;5.40;54.70;;;;;;5019327;28;20281;-82
2021/04/16 06:37:34;;;;;;;1.47;1.20;;;5.40;53.70;;;;;;5008842;28;20647;-82
2021/04/16 06:40:00;;;;;;;0.90;0.87;;;5.40;54.00;;;;;;4997875;28;20189;-81
2021/04/16 06:42:32;;;;;;;4.10;1.70;;;5.50;53.50;;;;;;4997060;28;20227;-82
2021/04/16 06:45:01;;;;;;;1.20;1.20;;;5.50;53.70;;;;;;5000476;28;20272;-82
2021/04/16 06:47:33;;;;;;;1.20;1.10;;;5.60;53.20;;;;;;5004996;28;20597;-82
2021/04/16 06:50:00;;;;;;;1.87;1.20;;;5.70;53.70;;;;;;5003207;28;20191;-82
2021/04/16 06:52:41;;;;;;;1.03;0.97;;;5.70;53.10;;;;;;4991970;28;20224;-83
2021/04/16 06:55:17;;;;;;;1.00;0.73;;;5.70;51.80;;;;;;5018487;28;20231;-86
2021/04/16 06:57:48;;;;;;;1.40;0.83;;;5.70;51.80;;;;;;4998945;28;20212;-86
2021/04/16 07:01:01;;;;;;;1.23;1.07;;;5.70;52.30;;;;;;5010783;28;20219;-88
2021/04/16 07:03:30;;;;;;;1.30;1.20;;;5.90;52.40;;;;;;4974540;28;20712;-89
2021/04/16 07:06:08;;;;;;;1.03;0.70;;;5.90;51.90;;;;;;4964764;28;20237;-89
2021/04/16 07:09:17;;;;;;;0.70;0.70;;;5.90;52.40;;;;;;4983175;28;20200;-88
2021/04/16 07:11:56;;;;;;;1.13;0.60;;;5.80;51.80;;;;;;4945298;28;20207;-88
2021/04/16 07:14:39;;;;;;;1.40;1.20;;;5.80;52.40;;;;;;4928692;29;20398;-88
2021/04/16 07:17:06;;;;;;;1.30;1.13;;;5.70;51.80;;;;;;4940842;29;20721;-87
2021/04/16 07:19:33;;;;;;;1.80;0.97;;;5.80;51.80;;;;;;4929130;29;20287;-88
2021/04/16 07:22:06;;;;;;;0.67;0.67;;;5.90;51.90;;;;;;4951349;29;20894;-87
2021/04/16 07:24:34;;;;;;;0.53;0.53;;;5.90;52.40;;;;;;4946767;29;20571;-87
2021/04/16 07:27:16;;;;;;;1.03;0.90;;;5.80;52.40;;;;;;4947438;28;20254;-88
2021/04/16 07:29:53;;;;;;;0.80;0.80;;;5.90;51.90;;;;;;4940392;29;20240;-87
2021/04/16 07:32:32;;;;;;;0.80;0.80;;;5.90;52.40;;;;;;4923567;29;20198;-87
2021/04/16 07:35:24;;;;;;;1.00;0.93;;;6.10;52.10;;;;;;4939639;29;20248;-87
2021/04/16 07:38:03;;;;;;;0.80;0.80;;;6.10;51.10;;;;;;4924199;29;20225;-86
2021/04/16 07:40:38;;;;;;;0.90;0.90;;;6.00;51.30;;;;;;4950137;29;20261;-89
2021/04/16 07:43:53;;;;;;;2.00;0.97;;;6.10;51.30;;;;;;4948294;29;20270;-90
2021/04/16 07:46:30;;;;;;;3.77;1.53;;;6.10;51.00;;;;;;4867312;29;20199;-89
2021/04/16 07:49:17;;;;;;;1.63;1.07;;;6.20;51.10;;;;;;4907706;29;20191;-88
2021/04/16 07:51:48;;;;;;;1.30;1.20;;;6.10;51.80;;;;;;4915223;29;20307;-88
2021/04/16 07:54:40;;;;;;;0.70;0.70;;;6.10;51.40;;;;;;4918151;29;20247;-88
2021/04/16 07:57:19;;;;;;;1.57;1.17;;;6.20;51.00;;;;;;4885784;29;20245;-88
2021/04/16 08:00:05;;;;;;;1.30;1.00;;;6.40;50.40;;;;;;4870567;29;20188;-87
2021/04/16 08:02:40;;;;;;;1.30;0.73;;;9.40;52.90;;;;;;4921148;28;20214;-87
2021/04/16 08:05:17;;;;;;;2.47;1.10;;;6.70;50.60;;;;;;4910287;29;20194;-86
2021/04/16 08:07:43;;;;;;;1.73;0.60;;;6.70;50.10;;;;;;4910091;29;21180;-86
2021/04/16 08:10:17;;;;;;;0.93;0.70;;;6.70;50.30;;;;;;4908181;29;20347;-86
2021/04/16 08:12:43;;;;;;;0.83;0.83;;;6.50;50.10;;;;;;4902384;29;20642;-86
2021/04/16 08:15:27;;;;;;;1.00;1.00;;;6.60;49.90;;;;;;4902602;29;20246;-87
2021/04/16 08:17:53;;;;;;;1.47;1.17;;;6.90;50.30;;;;;;4918022;29;20201;-87
2021/04/16 08:20:32;;;;;;;0.73;0.73;;;7.10;49.10;;;;;;4902444;29;20726;-86
2021/04/16 08:22:59;;;;;;;0.97;0.97;;;7.50;48.90;;;;;;4935062;28;20215;-86
2021/04/16 08:25:40;;;;;;;0.93;0.83;;;7.50;49.50;;;;;;4971849;28;20233;-86
2021/04/16 08:28:08;;;;;;;1.20;0.90;;;;;;;;;;4978612;28;20306;-87
2021/04/16 08:30:47;;;;;;;2.43;1.27;;;;;;;;;;5019807;28;20224;-88
2021/04/16 08:33:52;;;;;;;2.30;1.33;;;;;;;;;;5008839;28;20226;-89
2021/04/16 08:36:26;;;;;;;3.47;1.57;;;7.50;47.60;;;;;;4937199;29;20246;-86
2021/04/16 08:39:20;;;;;;;0.80;0.80;;;;;;;;;;4992426;28;20633;-88
2021/04/16 08:41:51;;;;;;;10.60;2.40;;;;;;;;;;5001229;28;20220;-85
2021/04/16 08:44:18;;;;;;;1.13;1.03;;;;;;;;;;5004390;28;20184;-88
2021/04/16 08:47:03;;;;;;;4.73;1.60;;;;;;;;;;5011033;28;20302;-89
2021/04/16 08:49:31;;;;;;;2.00;1.50;;;;;;;;;;5018838;28;20200;-90
2021/04/16 08:52:06;;;;;;;1.43;1.00;;;;;;;;;;5005433;28;20202;-89
2021/04/16 08:54:43;;;;;;;2.50;1.47;;;;;;;;;;5008896;28;20243;-89
2021/04/16 08:57:45;;;;;;;2.90;1.13;;;;;;;;;;4997566;28;20323;-88
2021/04/16 09:00:23;;;;;;;1.47;1.20;;;;;;;;;;4951670;28;20752;-88
2021/04/16 09:02:52;;;;;;;1.33;0.93;;;7.90;44.90;;;;;;4984538;28;20204;-88
2021/04/16 09:05:23;;;;;;;1.43;1.33;;;7.90;45.50;;;;;;5007321;28;20271;-88
2021/04/16 09:08:07;;;;;;;1.40;1.30;;;7.70;44.70;;;;;;4990599;28;20211;-88
2021/04/16 09:10:51;;;;;;;1.13;1.03;;;7.70;46.00;;;;;;5002255;28;20195;-88
2021/04/16 09:13:39;;;;;;;1.37;1.20;;;7.90;44.90;;;;;;5001991;28;20230;-87
2021/04/16 09:16:17;;;;;;;2.10;1.20;;;8.10;45.10;;;;;;5002727;28;20717;-87
2021/04/16 09:18:45;;;;;;;1.73;1.43;;;8.20;45.60;;;;;;5004161;28;20204;-88
2021/04/16 09:21:27;;;;;;;1.13;1.03;;;8.60;45.10;;;;;;5008327;28;20188;-88
2021/04/16 09:23:58;;;;;;;0.67;0.60;;;8.50;42.80;;;;;;5007303;28;20175;-86
2021/04/16 09:26:47;;;;;;;1.20;1.00;;;8.50;43.00;;;;;;5018370;28;20283;-89
2021/04/16 09:29:37;;;;;;;2.00;1.03;;;8.80;42.70;;;;;;4999649;28;21190;-88
2021/04/16 09:32:24;;;;;;;2.40;1.10;;;8.90;43.40;;;;;;4994188;28;20252;-88
2021/04/16 09:34:52;;;;;;;0.73;0.70;;;9.10;42.60;;;;;;5011009;28;20575;-89
2021/04/16 09:37:30;;;;;;;1.57;1.30;;;8.80;42.60;;;;;;4998083;28;20227;-90
2021/04/16 09:40:35;;;;;;;3.07;1.20;;;8.60;41.80;;;;;;4997806;28;20212;-89
2021/04/16 09:43:10;;;;;;;0.80;0.80;;;8.60;42.10;;;;;;4962128;28;20218;-88
2021/04/16 09:45:44;;;;;;;1.27;1.20;;;8.70;42.60;;;;;;4960230;29;20190;-88
2021/04/16 09:48:19;;;;;;;1.77;1.30;;;8.90;41.90;;;;;;4962289;28;20219;-89
2021/04/16 09:50:47;;;;;;;1.90;1.07;;;9.20;41.10;;;;;;4962401;28;20204;-89
2021/04/16 09:53:34;;;;;;;1.37;1.23;;;9.40;41.70;;;;;;4945047;28;20337;-89
2021/04/16 09:56:02;;;;;;;1.00;0.90;;;9.40;42.00;;;;;;4941396;29;20253;-89
2021/04/16 10:01:25;;;;;;;0.70;0.70;;;9.30;40.30;;;;;;4964015;28;20218;-89
2021/04/16 10:04:01;;;;;;;0.60;0.60;;;9.20;39.60;;;;;;4925854;29;20232;-89
2021/04/16 10:06:38;;;;;;;0.87;0.87;;;9.00;39.80;;;;;;4924067;28;20207;-89
2021/04/16 10:09:05;;;;;;;1.57;0.80;;;8.70;41.00;;;;;;4907732;29;20251;-89
2021/04/16 10:11:32;;;;;;;0.60;0.60;;;9.00;38.50;;;;;;4906792;29;20212;-89
2021/04/16 10:14:20;;;;;;;0.90;0.90;;;9.00;38.50;;;;;;4926493;29;20234;-89
2021/04/16 10:16:50;;;;;;;1.20;1.20;;;9.00;38.10;;;;;;4927116;28;20192;-88
2021/04/16 10:19:21;;;;;;;1.00;0.90;;;9.00;38.60;;;;;;4944612;28;20186;-88
2021/04/16 10:21:47;;;;;;;0.80;0.80;;;8.90;39.40;;;;;;4925908;28;20225;-88
2021/04/16 12:38:30;;;;;;;1.33;1.00;;;8.50;42.10;;;;;;5017422;28;20215;-87
2021/04/16 12:40:58;;;;;;;2.07;0.90;;;8.70;41.10;;;;;;5002885;28;20235;-87
2021/04/16 12:43:24;;;;;;;4.50;1.87;;;8.90;40.20;;;;;;4993622;28;20228;-88
2021/04/16 12:45:55;;;;;;;1.30;1.20;;;9.00;41.00;;;;;;5017635;28;20231;-88
2021/04/16 12:48:22;;;;;;;3.83;1.80;;;9.40;40.20;;;;;;5000305;28;20522;-88
2021/04/16 12:50:50;;;;;;;1.60;1.20;;;;;;;;;;5008140;28;20188;-89
2021/04/16 12:53:15;;;;;;;1.67;1.10;;;9.40;40.30;;;;;;4975599;28;20733;-88
2021/04/16 12:55:42;;;;;;;1.10;1.07;;;9.50;40.30;;;;;;4983972;28;20222;-89
2021/04/16 12:58:15;;;;;;;1.40;1.30;;;9.40;39.90;;;;;;4958747;28;20217;-87
2021/04/16 13:00:43;;;;;;;1.57;1.47;;;9.30;40.40;;;;;;4983950;28;20233;-88
2021/04/16 13:03:26;;;;;;;1.37;0.90;;;9.00;41.90;;;;;;4973042;28;20230;-88
2021/04/16 13:05:52;;;;;;;3.03;1.50;;;;;;;;;;4993342;28;20212;-88
2021/04/16 13:08:19;;;;;;;2.13;1.03;;;;;;;;;;4964919;28;20236;-88
2021/04/16 13:10:48;;;;;;;1.20;1.10;;;;;;;;;;4971977;28;20220;-88
2021/04/16 13:13:15;;;;;;;0.87;0.87;;;;;;;;;;4968029;28;20228;-88
2021/04/16 13:15:41;;;;;;;1.13;1.13;;;8.80;43.90;;;;;;4958287;28;20671;-88
2021/04/16 13:18:32;;;;;;;1.10;1.00;;;8.80;44.70;;;;;;4977916;28;20220;-87
2021/04/16 13:20:58;;;;;;;2.00;1.20;;;8.90;44.60;;;;;;4986968;28;20219;-88
2021/04/16 13:23:24;;;;;;;1.60;1.30;;;8.80;45.50;;;;;;4975297;28;20229;-88
2021/04/16 13:25:50;;;;;;;1.13;0.80;;;10.10;45.20;;;;;;4951217;28;20225;-87
2021/04/16 13:28:15;;;;;;;1.03;0.93;;;8.80;45.30;;;;;;4980721;28;20248;-88
2021/04/16 13:30:42;;;;;;;1.50;1.17;;;8.60;46.00;;;;;;4966410;28;20661;-87
2021/04/16 13:33:16;;;;;;;2.90;0.97;;;8.50;45.90;;;;;;4988366;28;20267;-87
2021/04/16 13:35:48;;;;;;;1.33;1.10;;;8.40;45.50;;;;;;4956799;28;20304;-87
2021/04/16 13:38:18;;;;;;;2.67;1.10;;;8.30;46.50;;;;;;4996737;28;20192;-87
2021/04/16 13:40:45;;;;;;;6.37;0.80;;;8.30;46.50;;;;;;5018994;28;20234;-86
2021/04/16 13:43:11;;;;;;;1.33;0.90;;;8.30;46.30;;;;;;5009524;28;20207;-84
2021/04/16 13:45:37;;;;;;;0.73;0.73;;;8.30;46.00;;;;;;5004961;28;20255;-85
2021/04/16 13:48:05;;;;;;;0.80;0.80;;;8.30;47.80;;;;;;5009865;28;20238;-85
2021/04/16 13:50:31;;;;;;;0.77;0.73;;;8.40;47.50;;;;;;5005423;28;20215;-85
2021/04/16 13:52:57;;;;;;;0.60;0.60;;;8.50;46.50;;;;;;5000453;28;20318;-85
2021/04/16 13:55:24;;;;;;;0.50;0.50;;;8.60;46.00;;;;;;4999238;28;20216;-85
2021/04/16 13:57:50;;;;;;;0.93;0.90;;;8.70;44.10;;;;;;5006095;28;20258;-85
2021/04/16 14:00:19;;;;;;;0.93;0.80;;;8.80;44.80;;;;;;5020551;28;20231;-85
2021/04/16 14:02:49;;;;;;;3.93;1.53;;;9.10;42.60;;;;;;5006556;28;20201;-86
2021/04/16 14:05:22;;;;;;;0.67;0.63;;;9.10;43.10;;;;;;5006096;28;20172;-87
2021/04/16 14:07:50;;;;;;;1.97;0.63;;;9.40;43.10;;;;;;4995582;28;20495;-87
2021/04/16 14:10:19;;;;;;;0.80;0.80;;;9.60;42.70;;;;;;5002360;28;20257;-86
2021/04/16 14:12:45;;;;;;;0.30;0.30;;;9.50;41.90;;;;;;5005452;28;20340;-81
2021/04/16 14:15:11;;;;;;;0.60;0.60;;;9.40;42.50;;;;;;5004680;28;20241;-82
2021/04/16 14:20:44;;;;;;;0.80;0.80;;;9.30;43.30;;;;;;5020812;28;20203;-86
2021/04/16 14:23:12;;;;;;;2.00;1.00;;;9.50;42.40;;;;;;5005926;28;20185;-85
2021/04/16 14:25:40;;;;;;;0.50;0.50;;;9.50;42.70;;;;;;5004511;28;20450;-86
2021/04/16 14:28:12;;;;;;;1.10;1.00;;;9.90;41.40;;;;;;5003013;28;20229;-85
2021/04/16 14:30:39;;;;;;;0.50;0.50;;;10.40;39.00;;;;;;4993889;28;20204;-88
2021/04/16 14:33:09;;;;;;;2.07;1.07;;;10.70;37.90;;;;;;5004880;28;20224;-89
2021/04/16 14:35:36;;;;;;;2.13;0.77;;;10.90;38.50;;;;;;5017141;28;20211;-89
2021/04/16 14:38:03;;;;;;;0.50;0.50;;;11.00;38.20;;;;;;5013652;28;20238;-88
2021/04/16 14:40:30;;;;;;;2.53;0.93;;;10.80;37.40;;;;;;5018701;28;20247;-88
2021/04/16 14:42:56;;;;;;;0.90;0.57;;;;;;;;;;5006958;28;20243;-88
2021/04/16 14:45:28;;;;;;;1.00;1.00;;;10.40;37.10;;;;;;5006609;28;20244;-88
2021/04/16 14:47:56;;;;;;;0.87;0.63;;;10.40;37.70;;;;;;5022068;28;20286;-89
2021/04/16 14:50:23;;;;;;;0.50;0.50;;;10.30;38.40;;;;;;5006855;28;20213;-87
2021/04/16 14:52:50;;;;;;;0.80;0.80;;;10.30;37.00;;;;;;5012878;28;20253;-87
2021/04/16 14:55:20;;;;;;;1.57;0.80;;;10.20;38.70;;;;;;5000803;28;20712;-90
2021/04/16 14:57:46;;;;;;;1.30;1.00;;;10.30;37.80;;;;;;5006118;28;20203;-88
2021/04/16 15:00:21;;;;;;;1.93;0.97;;;10.40;38.00;;;;;;5008234;28;20223;-89
2021/04/16 15:02:46;;;;;;;0.63;0.60;;;10.40;38.60;;;;;;4977337;28;20271;-89
2021/04/16 15:05:18;;;;;;;1.23;0.70;;;10.80;37.40;;;;;;4972747;28;20689;-88
2021/04/16 15:07:57;;;;;;;0.77;0.77;;;10.80;38.10;;;;;;4962609;28;20224;-87
2021/04/16 15:10:27;;;;;;;0.90;0.90;;;10.70;37.90;;;;;;4964780;28;20228;-87
2021/04/16 15:12:53;;;;;;;1.53;1.00;;;10.40;38.80;;;;;;4964049;28;20224;-85
2021/04/16 15:15:30;;;;;;;0.60;0.60;;;10.60;38.10;;;;;;4966505;28;20236;-87
2021/04/16 15:17:56;;;;;;;0.60;0.60;;;10.80;38.30;;;;;;4957993;28;20193;-86
2021/04/16 15:20:25;;;;;;;1.20;0.70;;;10.90;37.50;;;;;;4964865;28;20197;-84
2021/04/16 15:22:51;;;;;;;0.80;0.80;;;10.90;38.10;;;;;;4965204;28;20189;-86
2021/04/16 15:25:17;;;;;;;0.83;0.83;;;10.60;39.20;;;;;;4962685;28;20284;-88
2021/04/16 15:27:52;;;;;;;1.13;1.03;;;10.40;38.60;;;;;;4967059;28;20221;-87
2021/04/16 15:30:28;;;;;;;1.33;1.23;;;10.20;38.30;;;;;;4945317;28;20229;-88
2021/04/16 15:32:59;;;;;;;1.53;1.43;;;10.20;39.00;;;;;;4930833;28;20212;-88
2021/04/16 15:47:14;;;;;;;1.77;0.97;;;10.40;37.40;;;;;;4980518;28;20184;-86
2021/04/16 15:49:40;;;;;;;1.03;0.97;;;;;;;;;;4968164;28;20201;-87
2021/04/16 15:52:06;;;;;;;1.53;1.43;;;;;;;;;;4964890;28;20197;-86
2021/04/16 15:54:33;;;;;;;1.10;1.00;;;10.10;38.80;;;;;;4979602;28;20239;-86